Time;durP1;ratioP1;P1;durP2;ratioP2;P2;SDS_P1;SDS_P2;PMS_P1;PMS_P2;Temp;Humidity;BMP_temperature;BMP_pressure;BME280_temperature;BME280_humidity;BME280_pressure;Samples;Min_cycle;Max_cycle;Signal;HPM_P1;HPM_P2
2021/12/13 00:00:09;;;;;;;6.93;3.55;;;;;;;6.70;100.00;100037.38;5093277;28;20024;-70
2021/12/13 00:02:45;;;;;;;5.57;2.80;;;;;;;6.20;100.00;100036.25;5091729;28;20036;-70
2021/12/13 00:05:25;;;;;;;4.35;2.60;;;;;;;6.58;100.00;100037.50;5092995;28;20035;-69
2021/12/13 00:07:57;;;;;;;7.70;3.28;;;;;;;6.12;100.00;100024.50;5091794;28;20385;-70
2021/12/13 00:10:36;;;;;;;;;;;;;;;6.28;100.00;100024.38;5093781;28;20032;-70
2021/12/13 00:13:10;;;;;;;5.53;3.00;;;;;;;6.41;100.00;100046.97;5092819;28;19916;-70
2021/12/13 00:15:50;;;;;;;5.30;3.20;;;;;;;6.26;100.00;100044.56;5092946;28;20059;-70
2021/12/13 00:18:23;;;;;;;6.93;3.50;;;;;;;6.65;100.00;100049.25;5091579;28;20119;-70
2021/12/13 00:20:59;;;;;;;5.32;3.13;;;;;;;6.86;100.00;100054.03;5091476;28;20032;-70
2021/12/13 00:23:29;;;;;;;6.00;3.78;;;;;;;6.51;100.00;100081.38;5092550;28;20043;-70
2021/12/13 00:26:00;;;;;;;7.25;3.67;;;;;;;6.49;100.00;100055.31;5091970;28;20089;-71
2021/12/13 00:28:34;;;;;;;5.07;3.22;;;;;;;7.10;100.00;100063.00;5092694;28;20032;-70
2021/12/13 00:31:40;;;;;;;6.88;3.67;;;;;;;7.13;100.00;100080.63;5092535;28;20031;-69
2021/12/13 00:34:30;;;;;;;4.93;3.35;;;;;;;6.95;100.00;100083.41;5073669;28;20032;-70
2021/12/13 00:37:25;;;;;;;5.32;3.20;;;;;;;6.91;100.00;100087.66;5090964;28;20050;-70
2021/12/13 00:40:10;;;;;;;5.82;3.60;;;;;;;6.97;100.00;100092.63;5092184;28;20109;-67
2021/12/13 00:42:57;;;;;;;5.88;3.55;;;;;;;6.74;100.00;100094.59;5091730;28;20060;-70
2021/12/13 00:45:29;;;;;;;5.90;3.88;;;;;;;7.23;100.00;100091.50;5090985;28;20480;-70
2021/12/13 00:47:58;;;;;;;6.47;3.75;;;;;;;6.41;100.00;100067.16;5092363;28;20024;-70
2021/12/13 00:50:46;;;;;;;6.20;3.22;;;;;;;6.58;100.00;100092.22;5090857;28;20028;-70
2021/12/13 00:53:17;;;;;;;5.70;3.25;;;;;;;6.86;100.00;100074.25;5092056;28;20067;-70
2021/12/13 00:55:47;;;;;;;6.70;3.33;;;;;;;6.32;100.00;100066.41;5092343;28;20024;-70
2021/12/13 00:58:23;;;;;;;4.60;2.90;;;;;;;6.44;100.00;100074.69;5092008;28;20024;-71
2021/12/13 01:00:57;;;;;;;5.10;3.20;;;;;;;6.50;100.00;100094.00;5090636;28;20077;-71
2021/12/13 01:03:38;;;;;;;4.50;2.50;;;;;;;6.79;100.00;100087.78;5092002;28;20445;-71
2021/12/13 01:06:42;;;;;;;4.93;2.67;;;;;;;6.53;100.00;100091.44;5090717;28;20023;-70
2021/12/13 01:09:40;;;;;;;4.25;2.70;;;;;;;6.44;100.00;100087.31;5091868;28;20036;-71
2021/12/13 01:12:17;;;;;;;4.60;2.92;;;;;;;7.01;100.00;100086.69;5091013;28;20039;-71
2021/12/13 01:15:01;;;;;;;4.13;2.83;;;;;;;6.62;100.00;100088.81;5091754;28;20017;-70
2021/12/13 01:17:57;;;;;;;5.45;3.05;;;;;;;6.56;100.00;100082.16;5091687;28;20107;-70
2021/12/13 01:20:33;;;;;;;4.43;2.78;;;;;;;6.84;100.00;100070.06;5090486;28;20085;-70
2021/12/13 01:23:07;;;;;;;4.07;2.58;;;;;;;6.50;100.00;100072.09;5091431;28;20028;-71
2021/12/13 01:26:02;;;;;;;6.13;2.97;;;;;;;6.63;100.00;100063.56;5091710;28;20020;-71
2021/12/13 01:28:39;;;;;;;5.18;2.70;;;;;;;6.60;100.00;100062.75;5091655;28;20119;-70
2021/12/13 01:31:12;;;;;;;4.43;2.88;;;;;;;6.85;100.00;100049.00;5091386;28;20060;-70
2021/12/13 01:33:43;;;;;;;3.65;2.35;;;;;;;6.28;100.00;100035.28;5090072;28;20415;-68
2021/12/13 01:36:11;;;;;;;4.72;2.45;;;;;;;6.78;100.00;100058.34;5090524;28;20035;-69
2021/12/13 01:38:45;;;;;;;4.32;2.40;;;;;;;6.48;100.00;100057.81;5091244;28;20402;-70
2021/12/13 01:41:18;;;;;;;5.47;2.20;;;;;;;6.19;100.00;100052.22;5091676;28;20055;-70
2021/12/13 01:43:49;;;;;;;2.63;1.60;;;;;;;6.34;100.00;100044.53;5089743;28;20056;-70
2021/12/13 01:46:19;;;;;;;2.92;2.00;;;;;;;6.55;100.00;100046.81;5089840;28;20024;-70
2021/12/13 01:48:46;;;;;;;4.25;2.10;;;;;;;5.99;100.00;100053.25;5089612;28;20063;-69
2021/12/13 01:51:20;;;;;;;3.08;2.20;;;;;;;6.47;100.00;100053.63;5090257;28;20024;-70
2021/12/13 01:53:52;;;;;;;3.42;2.13;;;;;;;6.69;100.00;100044.97;5089565;28;20032;-70
2021/12/13 02:02:20;;;;;;;3.45;2.00;;;;;;;6.46;100.00;100049.41;5091406;28;20068;-70
2021/12/13 02:05:14;;;;;;;3.50;2.22;;;;;;;6.43;100.00;100020.00;5089628;28;20046;-69
2021/12/13 02:07:47;;;;;;;3.40;1.83;;;;;;;6.64;100.00;100047.53;5090749;28;20044;-69
2021/12/13 02:10:27;;;;;;;2.60;1.58;;;;;;;6.03;100.00;100047.31;5091096;28;20466;-69
2021/12/13 02:12:59;;;;;;;5.00;2.10;;;;;;;6.24;100.00;100045.47;5089502;28;20032;-70
2021/12/13 02:18:19;;;;;;;3.30;2.00;;;;;;;6.30;100.00;100058.03;5090940;28;20055;-70
2021/12/13 02:20:57;;;;;;;3.53;2.00;;;;;;;6.21;100.00;100063.97;5090864;28;20180;-70
2021/12/13 02:23:25;;;;;;;3.15;2.13;;;;;;;6.20;100.00;100061.47;5090597;28;20393;-70
2021/12/13 02:25:55;;;;;;;2.95;2.15;;;;;;;6.44;100.00;100058.72;5090845;28;20031;-70
2021/12/13 02:28:24;;;;;;;4.32;1.80;;;;;;;6.21;100.00;100058.94;5089498;28;20039;-70
2021/12/13 02:30:54;;;;;;;2.83;2.05;;;;;;;6.40;100.00;100069.72;5090623;28;20062;-70
2021/12/13 02:33:27;;;;;;;2.75;1.77;;;;;;;6.33;100.00;100061.34;5089522;28;20138;-70
2021/12/13 02:35:57;;;;;;;3.25;1.95;;;;;;;6.25;100.00;100068.16;5090677;28;20047;-70
2021/12/13 02:38:25;;;;;;;3.38;2.08;;;;;;;6.38;100.00;100063.84;5089289;28;20020;-70
2021/12/13 02:40:52;;;;;;;3.40;2.33;;;;;;;6.08;100.00;100063.25;5091128;28;20023;-70
2021/12/13 02:43:26;;;;;;;3.10;2.30;;;;;;;6.10;100.00;100073.34;5089017;28;20087;-73
2021/12/13 02:45:55;;;;;;;3.20;2.20;;;;;;;5.78;100.00;100065.16;5089248;28;20108;-71
2021/12/13 02:48:39;;;;;;;3.22;2.10;;;;;;;5.74;100.00;100078.63;5092690;28;20405;-70
2021/12/13 02:51:15;;;;;;;3.03;2.53;;;;;;;5.84;100.00;100068.47;5094699;28;20028;-71
2021/12/13 02:53:49;;;;;;;4.10;2.58;;;;;;;5.80;100.00;100069.31;5093150;28;20028;-71
2021/12/13 02:56:20;;;;;;;3.65;2.78;;;;;;;5.27;100.00;100044.47;5094288;28;20166;-71
2021/12/13 02:58:48;;;;;;;3.23;2.20;;;;;;;5.72;100.00;100085.38;5093314;28;20121;-71
2021/12/13 03:01:25;;;;;;;5.35;3.88;;;;;;;5.89;100.00;100089.47;5094178;28;20766;-71
2021/12/13 03:03:55;;;;;;;3.75;2.83;;;;;;;6.06;100.00;100094.41;5094136;28;20530;-71
2021/12/13 03:06:28;;;;;;;5.00;3.38;;;;;;;5.85;100.00;100099.59;5092857;28;20104;-71
2021/12/13 03:09:01;;;;;;;4.15;3.25;;;;;;;5.67;100.00;100069.41;5093002;28;20522;-70
2021/12/13 03:11:32;;;;;;;5.10;3.00;;;;;;;5.76;100.00;100104.69;5094583;28;20495;-71
2021/12/13 03:14:02;;;;;;;3.67;2.60;;;;;;;5.89;100.00;100121.44;5094091;28;20512;-71
2021/12/13 03:16:36;;;;;;;4.80;3.20;;;;;;;5.70;100.00;100119.84;5091883;28;20032;-71
2021/12/13 03:19:21;;;;;;;6.80;4.97;;;;;;;5.91;100.00;100132.34;5093837;28;20050;-71
2021/12/13 03:22:29;;;;;;;6.80;4.13;;;;;;;5.99;100.00;100130.63;5093902;28;20027;-71
2021/12/13 03:25:16;;;;;;;5.43;3.20;;;;;;;5.70;100.00;100135.81;5093911;28;20036;-71
2021/12/13 03:27:47;;;;;;;6.20;3.72;;;;;;;5.92;100.00;100136.56;5093649;28;20038;-71
2021/12/13 03:30:18;;;;;;;4.40;3.63;;;;;;;5.68;100.00;100136.69;5092693;28;20082;-71
2021/12/13 03:32:49;;;;;;;2.97;2.25;;;;;;;5.73;100.00;100142.50;5093598;28;20469;-71
2021/12/13 03:35:21;;;;;;;2.55;1.92;;;;;;;5.63;100.00;100136.69;5093587;28;20530;-71
2021/12/13 03:37:51;;;;;;;;;;;;;;;5.69;100.00;100144.22;5094719;28;20051;-71
2021/12/13 03:40:23;;;;;;;4.47;3.30;;;;;;;5.88;100.00;100134.91;5093900;28;19916;-71
2021/12/13 03:42:53;;;;;;;3.97;2.97;;;;;;;5.98;100.00;100142.38;5091795;28;20139;-71
2021/12/13 03:45:19;;;;;;;7.55;4.97;;;;;;;5.71;100.00;100149.25;5093630;28;20044;-71
2021/12/13 03:47:49;;;;;;;6.93;4.90;;;;;;;5.09;100.00;100057.16;5093433;28;20074;-71
2021/12/13 03:50:22;;;;;;;5.13;3.97;;;;;;;5.68;100.00;100145.09;5092155;28;20035;-71
2021/12/13 03:52:52;;;;;;;3.83;2.80;;;;;;;5.68;100.00;100139.19;5093464;28;20138;-71
2021/12/13 03:55:22;;;;;;;4.55;3.03;;;;;;;5.65;100.00;100139.19;5093280;28;20016;-71
2021/12/13 03:57:57;;;;;;;7.53;4.70;;;;;;;5.54;100.00;100119.09;5091890;28;20036;-72
2021/12/13 04:00:32;;;;;;;7.20;4.55;;;;;;;5.63;100.00;100150.97;5092340;28;20023;-71
2021/12/13 04:03:02;;;;;;;8.73;5.60;;;;;;;5.63;100.00;100143.41;5093202;28;20032;-71
2021/12/13 04:05:30;;;;;;;8.27;6.45;;;;;;;5.48;100.00;100141.84;5093047;28;20097;-71
2021/12/13 04:08:02;;;;;;;5.30;3.22;;;;;;;5.35;100.00;100151.97;5093067;28;20450;-71
2021/12/13 04:10:36;;;;;;;6.22;3.67;;;;;;;5.48;100.00;100138.47;5093423;28;20030;-71
2021/12/13 04:13:10;;;;;;;5.05;2.83;;;;;;;5.50;100.00;100136.78;5092922;28;20028;-71
2021/12/13 04:16:07;;;;;;;4.30;3.25;;;;;;;5.45;100.00;100149.38;5092844;28;20035;-72
2021/12/13 04:19:06;;;;;;;4.47;2.83;;;;;;;5.59;100.00;100146.78;5092812;28;20035;-71
2021/12/13 04:21:39;;;;;;;4.07;2.80;;;;;;;5.50;100.00;100151.91;5092561;28;20415;-71
2021/12/13 04:24:10;;;;;;;3.72;2.55;;;;;;;5.90;100.00;100154.22;5092867;28;20024;-68
2021/12/13 04:26:55;;;;;;;5.85;4.03;;;;;;;5.85;100.00;100150.03;5092539;28;20096;-71
2021/12/13 04:29:31;;;;;;;8.40;5.18;;;;;;;5.93;100.00;100150.84;5092691;28;20027;-71
2021/12/13 04:32:08;;;;;;;5.95;4.50;;;;;;;6.14;100.00;100161.63;5092347;28;20440;-71
2021/12/13 04:34:41;;;;;;;6.65;4.43;;;;;;;6.34;100.00;100158.94;5092682;28;20035;-71
2021/12/13 04:37:11;;;;;;;5.10;3.42;;;;;;;5.70;100.00;100156.00;5092478;28;20039;-71
2021/12/13 04:39:40;;;;;;;4.05;3.28;;;;;;;5.80;100.00;100155.06;5092404;28;20114;-71
2021/12/13 04:42:14;;;;;;;4.65;3.42;;;;;;;5.77;100.00;100137.44;5090950;28;20064;-71
2021/12/13 04:44:50;;;;;;;4.28;3.20;;;;;;;5.97;100.00;100158.38;5090873;28;20031;-71
2021/12/13 04:47:54;;;;;;;6.75;3.67;;;;;;;5.89;100.00;100164.31;5090899;28;20500;-71
2021/12/13 04:50:28;;;;;;;5.15;3.10;;;;;;;5.63;100.00;100113.16;5090640;28;20465;-72
2021/12/13 04:52:56;;;;;;;4.22;2.60;;;;;;;5.81;100.00;100166.00;5092458;28;20512;-69
2021/12/13 04:55:36;;;;;;;3.70;2.60;;;;;;;6.02;100.00;100159.19;5090962;28;20485;-70
2021/12/13 04:58:09;;;;;;;4.22;2.40;;;;;;;5.80;100.00;100150.03;5087255;28;20047;-70
2021/12/13 05:00:43;;;;;;;5.10;3.38;;;;;;;5.98;100.00;100156.69;5070835;28;20509;-74
2021/12/13 05:03:12;;;;;;;4.68;3.03;;;;;;;5.71;100.00;100157.66;5067080;28;20120;-70
2021/12/13 05:05:40;;;;;;;3.22;2.67;;;;;;;5.86;100.00;100136.59;5063900;28;20111;-72
2021/12/13 05:08:13;;;;;;;4.63;3.45;;;;;;;5.98;100.00;100156.69;5071056;28;20028;-73
2021/12/13 05:10:40;;;;;;;4.30;3.22;;;;;;;6.13;100.00;100154.91;5069952;28;20031;-71
2021/12/13 05:13:19;;;;;;;4.00;3.22;;;;;;;6.00;100.00;100155.81;5069827;28;20033;-73
2021/12/13 05:16:09;;;;;;;5.60;3.70;;;;;;;6.25;100.00;100150.59;5070885;28;20064;-70
2021/12/13 05:18:43;;;;;;;8.95;5.63;;;;;;;6.54;100.00;100167.19;5070694;28;20040;-71
2021/12/13 05:21:15;;;;;;;7.47;5.47;;;;;;;6.29;100.00;100164.88;5070195;28;20025;-71
2021/12/13 05:24:02;;;;;;;;;;;;;;;6.37;100.00;100168.19;5071412;28;20066;-71
2021/12/13 05:26:36;;;;;;;6.78;4.30;;;;;;;6.03;100.00;100170.97;5070607;28;19931;-71
2021/12/13 05:29:33;;;;;;;6.85;4.85;;;;;;;6.25;100.00;100176.69;5069711;28;20025;-72
2021/12/13 05:32:08;;;;;;;7.55;5.30;;;;;;;6.00;100.00;100167.63;5070629;28;20422;-71
2021/12/13 05:34:41;;;;;;;8.07;5.32;;;;;;;6.04;100.00;100176.84;5070439;28;20400;-72
2021/12/13 05:37:09;;;;;;;8.30;5.03;;;;;;;5.92;100.00;100180.25;5070710;28;20020;-72
2021/12/13 05:39:37;;;;;;;10.07;5.88;;;;;;;5.90;100.00;100186.19;5070949;28;20093;-73
2021/12/13 05:42:11;;;;;;;19.23;8.25;;;;;;;6.01;100.00;100192.00;5067832;28;20121;-71
2021/12/13 05:44:44;;;;;;;13.25;7.43;;;;;;;5.90;100.00;100203.84;5070339;28;20059;-71
2021/12/13 05:47:22;;;;;;;13.07;6.38;;;;;;;5.98;100.00;100195.38;5070777;28;20032;-71
2021/12/13 05:49:49;;;;;;;11.75;6.35;;;;;;;6.08;100.00;100198.69;5071075;28;20028;-70
2021/12/13 05:52:19;;;;;;;9.82;5.60;;;;;;;5.94;100.00;100202.97;5070867;28;20047;-71
2021/12/13 05:54:52;;;;;;;10.98;6.30;;;;;;;6.70;100.00;100193.97;5070754;28;20037;-71
2021/12/13 05:57:23;;;;;;;11.70;6.65;;;;;;;5.92;100.00;100192.88;5069646;28;20081;-71
2021/12/13 06:00:01;;;;;;;10.13;6.20;;;;;;;6.03;100.00;100197.88;5070311;28;20489;-70
2021/12/13 06:02:30;;;;;;;10.18;6.40;;;;;;;6.12;100.00;100200.31;5069151;28;20586;-71
2021/12/13 06:04:56;;;;;;;10.35;6.95;;;;;;;6.04;100.00;100202.09;5070906;28;20033;-70
2021/12/13 06:07:24;;;;;;;10.52;6.47;;;;;;;5.97;100.00;100197.91;5070877;28;20024;-70
2021/12/13 06:10:05;;;;;;;6.95;4.93;;;;;;;5.98;100.00;100197.06;5070750;28;20055;-76
2021/12/13 06:12:34;;;;;;;5.82;4.50;;;;;;;5.97;100.00;100195.38;5070755;28;20051;-70
2021/12/13 06:15:16;;;;;;;5.43;4.20;;;;;;;6.02;100.00;100218.91;5070900;28;20450;-70
2021/12/13 06:18:07;;;;;;;7.35;4.32;;;;;;;5.91;100.00;100211.41;5069997;28;20025;-71
2021/12/13 06:20:59;;;;;;;5.50;4.30;;;;;;;5.86;100.00;100215.63;5064991;28;20123;-70
2021/12/13 06:23:30;;;;;;;4.80;3.75;;;;;;;5.85;100.00;100213.94;5070268;28;20036;-70
2021/12/13 06:26:09;;;;;;;5.50;4.20;;;;;;;5.77;100.00;100205.56;5073864;28;20027;-71
2021/12/13 06:28:41;;;;;;;5.82;4.70;;;;;;;5.76;100.00;100215.66;5074115;28;20035;-71
2021/12/13 06:31:14;;;;;;;7.22;5.32;;;;;;;6.07;100.00;100224.75;5073772;28;20028;-70
2021/12/13 06:33:57;;;;;;;17.73;11.30;;;;;;;5.92;100.00;100220.63;5073176;28;20033;-69
2021/12/13 06:36:33;;;;;;;12.57;7.97;;;;;;;6.08;100.00;100224.75;5074699;28;20089;-70
2021/12/13 06:39:15;;;;;;;13.27;9.50;;;;;;;5.77;100.00;100222.34;5074609;28;20029;-70
2021/12/13 06:41:42;;;;;;;15.25;10.75;;;;;;;5.83;100.00;100228.25;5074119;28;20039;-70
2021/12/13 06:44:26;;;;;;;9.77;7.13;;;;;;;5.85;100.00;100235.81;5074241;28;20480;-70
2021/12/13 06:47:15;;;;;;;7.82;4.63;;;;;;;5.76;100.00;100234.16;5074541;28;20036;-70
2021/12/13 06:49:44;;;;;;;7.75;5.50;;;;;;;5.93;100.00;100226.50;5074425;28;20024;-70
2021/12/13 06:52:13;;;;;;;23.35;12.32;;;;;;;5.88;100.00;100230.75;5072897;28;20396;-70
2021/12/13 06:54:49;;;;;;;10.45;6.00;;;;;;;5.71;100.00;100227.44;5072743;28;20033;-69
2021/12/13 06:57:17;;;;;;;9.80;6.35;;;;;;;5.54;100.00;100230.03;5072850;28;20107;-70
2021/12/13 07:00:05;;;;;;;5.85;4.45;;;;;;;5.68;100.00;100229.97;5072739;28;20574;-71
2021/12/13 07:02:41;;;;;;;8.15;5.05;;;;;;;5.75;100.00;100229.94;5072718;28;20106;-70
2021/12/13 07:05:32;;;;;;;8.80;6.57;;;;;;;5.70;100.00;100233.34;5072598;28;20522;-70
2021/12/13 07:08:25;;;;;;;8.75;6.47;;;;;;;5.76;100.00;100238.34;5069844;28;20098;-70
2021/12/13 07:10:55;;;;;;;7.53;5.78;;;;;;;5.80;100.00;100242.53;5074352;28;20385;-70
2021/12/13 07:13:23;;;;;;;9.50;6.50;;;;;;;5.78;100.00;100259.38;5073771;28;20098;-70
2021/12/13 07:16:12;;;;;;;11.75;7.35;;;;;;;5.64;100.00;100218.22;5073776;28;20086;-70
2021/12/13 07:19:07;;;;;;;16.25;8.10;;;;;;;5.74;100.00;100240.03;5073658;28;20033;-69
2021/12/13 07:21:39;;;;;;;11.20;7.40;;;;;;;5.53;100.00;100222.47;5073635;28;20033;-69
2021/12/13 07:24:09;;;;;;;17.17;9.18;;;;;;;5.78;100.00;100246.75;5073606;28;20134;-69
2021/12/13 07:26:53;;;;;;;10.85;6.50;;;;;;;5.57;100.00;100249.34;5073617;28;20086;-69
2021/12/13 07:29:20;;;;;;;10.90;7.45;;;;;;;5.84;100.00;100266.94;5073480;28;20055;-69
2021/12/13 07:32:03;;;;;;;25.00;12.00;;;;;;;5.74;100.00;100267.78;5072290;28;20527;-69
2021/12/13 07:34:28;;;;;;;10.45;6.80;;;;;;;5.76;100.00;100272.00;5072202;28;20039;-69
2021/12/13 07:36:57;;;;;;;21.17;10.88;;;;;;;5.82;100.00;100261.03;5073376;28;20028;-69
2021/12/13 07:39:28;;;;;;;30.25;14.18;;;;;;;5.90;100.00;100277.00;5073326;28;20026;-69
2021/12/13 07:41:58;;;;;;;14.30;6.67;;;;;;;5.79;100.00;100243.38;5073234;28;20081;-69
2021/12/13 07:44:46;;;;;;;47.10;19.55;;;;;;;5.88;100.00;100276.97;5073062;28;20043;-69
2021/12/13 07:47:13;;;;;;;12.80;7.28;;;;;;;5.74;100.00;100273.69;5071854;28;20021;-69
2021/12/13 07:49:44;;;;;;;14.38;7.43;;;;;;;5.70;100.00;100277.06;5073218;28;20598;-70
2021/12/13 07:52:24;;;;;;;43.67;18.10;;;;;;;5.86;100.00;100285.44;5071743;28;20021;-70
2021/12/13 07:54:50;;;;;;;16.95;8.45;;;;;;;5.98;100.00;100286.19;5073066;28;20090;-70
2021/12/13 07:57:39;;;;;;;27.35;10.32;;;;;;;6.00;100.00;100278.63;5071891;28;20028;-70
2021/12/13 08:00:21;;;;;;;33.60;14.00;;;;;;;6.00;100.00;100294.59;5073090;28;20403;-70
2021/12/13 08:02:59;;;;;;;;;;;;;;;6.15;100.00;100308.84;5073204;28;20029;-70
2021/12/13 08:05:29;;;;;;;15.10;7.60;;;;;;;6.14;100.00;100290.31;5072896;28;20295;-70
2021/12/13 08:07:59;;;;;;;6.32;4.50;;;;;;;6.04;100.00;100301.31;5072994;28;20062;-70
2021/12/13 08:10:35;;;;;;;25.13;9.30;;;;;;;5.78;100.00;100275.34;5073180;28;20115;-70
2021/12/13 08:13:06;;;;;;;16.13;5.95;;;;;;;5.95;100.00;100303.88;5071418;28;20075;-69
2021/12/13 08:15:50;;;;;;;13.13;5.53;;;;;;;6.01;100.00;100308.06;5072797;28;20045;-70
2021/12/13 08:18:27;;;;;;;41.13;14.18;;;;;;;5.99;100.00;100314.78;5072775;28;20103;-70
2021/12/13 08:21:07;;;;;;;7.93;5.30;;;;;;;6.31;100.00;100307.91;5071662;28;20028;-70
2021/12/13 08:23:46;;;;;;;48.17;13.25;;;;;;;6.16;100.00;100315.53;5072269;28;20020;-69
2021/12/13 08:26:17;;;;;;;22.95;8.65;;;;;;;6.21;100.00;100315.53;5072315;28;20032;-69
2021/12/13 08:28:47;;;;;;;8.70;4.97;;;;;;;5.93;100.00;100305.56;5072475;28;20063;-69
2021/12/13 08:31:39;;;;;;;55.28;18.85;;;;;;;5.81;100.00;100277.84;5072250;28;20082;-70
2021/12/13 08:34:11;;;;;;;;;;;;;;;6.04;100.00;100313.09;5072772;28;20480;-70
2021/12/13 08:36:48;;;;;;;52.13;15.82;;;;;;;6.15;100.00;100321.44;5070913;28;19935;-69
2021/12/13 08:39:29;;;;;;;8.82;4.88;;;;;;;6.08;100.00;100329.91;5072129;28;20021;-69
2021/12/13 08:42:14;;;;;;;10.98;5.40;;;;;;;6.01;100.00;100323.19;5072091;28;20021;-69
2021/12/13 08:44:56;;;;;;;5.78;4.20;;;;;;;6.01;100.00;100311.44;5071975;28;20024;-69
2021/12/13 08:47:30;;;;;;;14.98;7.10;;;;;;;6.04;100.00;100311.41;5070534;28;20047;-69
2021/12/13 08:50:05;;;;;;;8.10;4.47;;;;;;;6.12;100.00;100316.41;5072023;28;20024;-70
2021/12/13 08:52:40;;;;;;;6.50;4.25;;;;;;;6.11;100.00;100317.25;5070729;28;20570;-71
2021/12/13 08:55:12;;;;;;;6.35;4.57;;;;;;;6.15;100.00;100321.44;5070530;28;20052;-71
2021/12/13 08:58:14;;;;;;;5.35;3.97;;;;;;;5.94;100.00;100319.84;5071727;28;20039;-70
2021/12/13 09:01:14;;;;;;;5.63;4.50;;;;;;;5.98;100.00;100313.13;5071067;28;20082;-71
2021/12/13 09:03:52;;;;;;;9.95;7.18;;;;;;;6.13;100.00;100325.66;5070650;28;20117;-70
2021/12/13 09:06:17;;;;;;;7.05;5.07;;;;;;;6.07;100.00;100321.50;5071692;28;20127;-71
2021/12/13 09:09:13;;;;;;;5.13;3.58;;;;;;;5.96;100.00;100314.81;5071587;28;20116;-70
2021/12/13 09:11:58;;;;;;;8.00;4.00;;;;;;;6.14;100.00;100324.81;5068830;28;20041;-71
2021/12/13 09:14:31;;;;;;;6.28;4.55;;;;;;;6.17;100.00;100321.44;5071463;28;20039;-71
2021/12/13 09:17:22;;;;;;;6.10;3.75;;;;;;;6.20;100.00;100322.25;5071637;28;20028;-71
2021/12/13 09:19:47;;;;;;;7.90;4.47;;;;;;;6.46;100.00;100310.34;5070826;28;20036;-71
2021/12/13 09:22:31;;;;;;;6.90;4.68;;;;;;;6.34;100.00;100310.41;5070032;28;20105;-71
2021/12/13 09:25:21;;;;;;;6.40;4.72;;;;;;;6.23;100.00;100312.16;5071169;28;20408;-70
2021/12/13 09:27:59;;;;;;;4.55;3.42;;;;;;;6.09;100.00;100318.97;5069805;28;20492;-71
2021/12/13 09:30:51;;;;;;;5.82;4.15;;;;;;;6.13;100.00;100328.19;5071348;28;20107;-71
2021/12/13 09:33:28;;;;;;;5.55;4.38;;;;;;;6.18;100.00;100316.38;5070961;28;20083;-70
2021/12/13 09:36:19;;;;;;;6.78;4.32;;;;;;;6.27;100.00;100328.13;5071336;28;20208;-70
2021/12/13 09:39:02;;;;;;;5.20;4.03;;;;;;;6.35;100.00;100326.41;5069678;28;20562;-70
2021/12/13 09:41:39;;;;;;;6.25;4.00;;;;;;;6.34;100.00;100328.06;5071427;28;20496;-70
2021/12/13 09:44:14;;;;;;;5.43;3.90;;;;;;;6.38;100.00;100322.16;5070768;28;20054;-70
2021/12/13 09:46:46;;;;;;;3.83;2.90;;;;;;;6.17;100.00;100326.50;5069828;28;20124;-70
2021/12/13 09:49:26;;;;;;;6.00;3.47;;;;;;;6.14;100.00;100323.13;5070884;28;20025;-70
2021/12/13 09:51:59;;;;;;;8.48;5.20;;;;;;;6.28;100.00;100323.06;5069570;28;20059;-71
2021/12/13 09:54:30;;;;;;;5.00;3.70;;;;;;;6.24;100.00;100306.25;5069656;28;20078;-70
2021/12/13 09:57:02;;;;;;;4.80;3.63;;;;;;;6.23;100.00;100313.84;5070421;28;20043;-70
2021/12/13 09:59:35;;;;;;;6.47;4.40;;;;;;;6.11;100.00;100274.38;5070631;28;20263;-70
2021/12/13 10:02:04;;;;;;;8.50;5.35;;;;;;;6.28;100.00;100312.16;5070776;28;20394;-70
2021/12/13 10:04:36;;;;;;;7.75;5.70;;;;;;;6.47;100.00;100327.19;5069397;28;20056;-70
2021/12/13 10:07:10;;;;;;;8.35;5.32;;;;;;;6.29;100.00;100317.19;5070592;28;20126;-69
2021/12/13 10:09:49;;;;;;;6.63;5.10;;;;;;;6.36;100.00;100331.44;5069415;28;20507;-69
2021/12/13 10:12:20;;;;;;;4.95;4.20;;;;;;;6.40;100.00;100339.84;5070853;28;20043;-71
2021/12/13 10:15:08;;;;;;;7.03;4.78;;;;;;;6.41;100.00;100344.03;5070433;28;20038;-70
2021/12/13 10:17:37;;;;;;;6.13;4.45;;;;;;;6.32;100.00;100336.53;5070133;28;20385;-70
2021/12/13 10:20:13;;;;;;;6.70;4.75;;;;;;;6.49;100.00;100330.53;5070592;28;20407;-70
2021/12/13 10:22:39;;;;;;;9.52;5.57;;;;;;;6.37;100.00;100329.75;5070701;28;20566;-70
2021/12/13 10:25:14;;;;;;;6.88;4.72;;;;;;;6.47;100.00;100318.75;5070420;28;20493;-70
2021/12/13 10:27:40;;;;;;;7.50;5.63;;;;;;;6.59;100.00;100334.69;5069183;28;20566;-70
2021/12/13 10:30:12;;;;;;;7.28;5.15;;;;;;;6.64;100.00;100330.44;5070661;28;20055;-70
2021/12/13 10:32:41;;;;;;;9.68;6.20;;;;;;;6.58;100.00;100338.03;5063910;28;20025;-68
2021/12/13 10:35:17;;;;;;;8.82;5.75;;;;;;;6.44;100.00;100336.47;5054678;28;20029;-70
2021/12/13 10:37:53;;;;;;;8.73;5.85;;;;;;;6.58;100.00;100324.56;5049295;28;20029;-70
2021/12/13 10:40:20;;;;;;;10.77;5.93;;;;;;;6.64;100.00;100329.59;5050491;28;20037;-70
2021/12/13 10:42:54;;;;;;;7.30;5.50;;;;;;;6.51;100.00;100326.31;5048317;28;20143;-70
2021/12/13 10:45:26;;;;;;;7.85;4.90;;;;;;;6.59;100.00;100337.22;5049061;28;20036;-71
2021/12/13 10:47:59;;;;;;;10.45;7.35;;;;;;;6.54;100.00;100327.97;5047968;28;20025;-70
2021/12/13 10:50:32;;;;;;;9.57;6.80;;;;;;;6.46;100.00;100335.59;5049930;28;20067;-71
2021/12/13 10:52:58;;;;;;;12.40;8.43;;;;;;;6.42;100.00;100313.72;5047501;28;20523;-70
2021/12/13 10:55:32;;;;;;;13.38;8.55;;;;;;;6.53;100.00;100313.66;5049128;28;20086;-71
2021/12/13 10:57:59;;;;;;;15.02;9.77;;;;;;;6.55;100.00;100304.41;5048772;28;20404;-70
2021/12/13 11:00:39;;;;;;;14.88;10.48;;;;;;;6.54;100.00;100295.13;5049412;28;20052;-69
2021/12/13 11:03:12;;;;;;;10.50;8.00;;;;;;;6.56;100.00;100301.84;5049607;28;20504;-69
2021/12/13 11:05:39;;;;;;;23.70;12.63;;;;;;;6.80;100.00;100298.31;5048199;28;20072;-70
2021/12/13 11:08:09;;;;;;;14.48;9.68;;;;;;;6.72;100.00;100295.00;5050093;28;20489;-70
2021/12/13 11:10:39;;;;;;;10.23;7.55;;;;;;;6.90;100.00;100290.66;5054299;28;20025;-70
2021/12/13 11:13:07;;;;;;;10.57;7.68;;;;;;;6.75;100.00;100275.63;5052571;28;20421;-70
2021/12/13 11:15:38;;;;;;;11.80;8.00;;;;;;;7.11;100.00;100289.63;5053704;28;20022;-70
2021/12/13 11:18:11;;;;;;;9.20;7.00;;;;;;;7.08;100.00;100288.81;5052709;28;20031;-71
2021/12/13 11:20:44;;;;;;;9.43;7.38;;;;;;;7.13;100.00;100294.69;5053716;28;20111;-70
2021/12/13 11:23:15;;;;;;;10.93;6.60;;;;;;;6.86;100.00;100283.97;5052239;28;20025;-70
2021/12/13 11:25:46;;;;;;;9.77;6.63;;;;;;;6.77;100.00;100288.25;5053782;28;20060;-69
2021/12/13 11:28:15;;;;;;;8.57;7.05;;;;;;;6.79;100.00;100278.97;5052276;28;20464;-72
2021/12/13 11:30:42;;;;;;;11.60;8.27;;;;;;;6.87;100.00;100274.69;5052225;28;20021;-70
2021/12/13 11:33:09;;;;;;;9.77;7.45;;;;;;;6.87;100.00;100284.81;5053758;28;20401;-70
2021/12/13 11:36:06;;;;;;;9.77;7.07;;;;;;;6.81;100.00;100270.50;5052054;28;20025;-70
2021/12/13 11:38:51;;;;;;;8.85;7.50;;;;;;;7.33;100.00;100265.00;5052056;28;20058;-70
2021/12/13 11:41:57;;;;;;;29.77;14.48;;;;;;;7.12;100.00;100260.97;5053706;28;20029;-70
2021/12/13 11:44:40;;;;;;;11.02;8.82;;;;;;;6.79;100.00;100272.19;5053316;28;20049;-70
2021/12/13 11:47:33;;;;;;;13.05;8.77;;;;;;;6.83;100.00;100268.81;5053312;28;20029;-70
2021/12/13 11:50:38;;;;;;;9.13;7.13;;;;;;;6.73;100.00;100266.38;5053264;28;20090;-70
2021/12/13 11:53:44;;;;;;;10.05;6.80;;;;;;;6.81;100.00;100277.28;5051939;28;20112;-70
2021/12/13 11:56:28;;;;;;;15.32;10.07;;;;;;;6.81;100.00;100264.63;5053190;28;20063;-70
2021/12/13 11:59:28;;;;;;;14.00;9.82;;;;;;;6.95;100.00;100271.22;5051942;28;20033;-69
2021/12/13 12:02:10;;;;;;;14.68;9.30;;;;;;;6.84;100.00;100267.13;5053152;28;20456;-69
2021/12/13 12:05:11;;;;;;;15.73;10.48;;;;;;;6.81;100.00;100267.16;5052958;28;20463;-70
2021/12/13 12:07:54;;;;;;;13.25;8.40;;;;;;;6.84;100.00;100265.44;5051805;28;20045;-70
2021/12/13 12:10:49;;;;;;;11.13;8.07;;;;;;;6.86;100.00;100267.94;5052968;28;20033;-70
2021/12/13 12:13:15;;;;;;;13.07;8.30;;;;;;;6.99;100.00;100269.53;5052783;28;20041;-69
2021/12/13 12:15:45;;;;;;;11.73;8.20;;;;;;;6.78;100.00;100240.22;5051398;28;20091;-69